Terminal Aerodrome Forecast
Issued by NWS Wakefield, VA

Home | Current Version | Previous Version | Text Only | Print | Product List | Glossary On
Versions: 1 2 3 4 5 6 7 8 9 10 11 12 13 14
752
FTUS41 KAKQ 051138
TAFORF
TAF
KORF 051138Z 0512/0612 35007KT 5SM -RA BR BKN004 OVC024
     FM051300 35006KT P6SM VCSH SCT006 BKN012
     FM051500 35007KT P6SM VCSH BKN020 BKN040
     FM051900 34009KT P6SM BKN050
     FM052200 34010KT P6SM SCT250=

USA.gov is the U.S. government's official web portal to all federal, state and local government web resources and services.